sensor_id;sensor_type;location;lat;lon;timestamp;P1;durP1;ratioP1;P2;durP2;ratioP2
9970;SDS011;5026;51.494;11.974;2023-03-13T00:01:37;9.97;;;4.20;;
9970;SDS011;5026;51.494;11.974;2023-03-13T00:04:05;16.40;;;3.90;;
9970;SDS011;5026;51.494;11.974;2023-03-13T00:06:33;11.57;;;3.80;;
9970;SDS011;5026;51.494;11.974;2023-03-13T00:09:01;10.40;;;3.93;;
9970;SDS011;5026;51.494;11.974;2023-03-13T00:11:29;16.40;;;4.23;;
9970;SDS011;5026;51.494;11.974;2023-03-13T00:13:59;12.53;;;3.93;;
9970;SDS011;5026;51.494;11.974;2023-03-13T00:16:27;15.83;;;3.83;;
9970;SDS011;5026;51.494;11.974;2023-03-13T00:18:55;11.00;;;4.17;;
9970;SDS011;5026;51.494;11.974;2023-03-13T00:21:24;10.53;;;4.33;;
9970;SDS011;5026;51.494;11.974;2023-03-13T00:23:52;11.43;;;3.73;;
9970;SDS011;5026;51.494;11.974;2023-03-13T00:26:20;12.07;;;4.23;;
9970;SDS011;5026;51.494;11.974;2023-03-13T00:28:48;15.83;;;4.30;;
9970;SDS011;5026;51.494;11.974;2023-03-13T00:31:17;11.43;;;3.83;;
9970;SDS011;5026;51.494;11.974;2023-03-13T00:33:46;12.10;;;3.77;;
9970;SDS011;5026;51.494;11.974;2023-03-13T00:36:14;12.37;;;3.77;;
9970;SDS011;5026;51.494;11.974;2023-03-13T00:38:43;14.47;;;3.80;;
9970;SDS011;5026;51.494;11.974;2023-03-13T00:41:11;9.23;;;3.80;;
9970;SDS011;5026;51.494;11.974;2023-03-13T00:43:40;12.40;;;4.30;;
9970;SDS011;5026;51.494;11.974;2023-03-13T00:46:07;12.67;;;4.33;;
9970;SDS011;5026;51.494;11.974;2023-03-13T00:48:36;14.23;;;3.60;;
9970;SDS011;5026;51.494;11.974;2023-03-13T00:51:03;17.67;;;3.50;;
9970;SDS011;5026;51.494;11.974;2023-03-13T00:53:32;20.67;;;3.73;;
9970;SDS011;5026;51.494;11.974;2023-03-13T00:56:01;13.73;;;3.87;;
9970;SDS011;5026;51.494;11.974;2023-03-13T00:58:30;10.90;;;3.63;;
9970;SDS011;5026;51.494;11.974;2023-03-13T01:01:05;13.37;;;3.83;;
9970;SDS011;5026;51.494;11.974;2023-03-13T01:03:33;12.33;;;3.53;;
9970;SDS011;5026;51.494;11.974;2023-03-13T01:06:03;10.37;;;3.53;;
9970;SDS011;5026;51.494;11.974;2023-03-13T01:08:31;16.33;;;3.93;;
9970;SDS011;5026;51.494;11.974;2023-03-13T01:10:58;16.70;;;4.57;;
9970;SDS011;5026;51.494;11.974;2023-03-13T01:13:26;13.03;;;3.57;;
9970;SDS011;5026;51.494;11.974;2023-03-13T01:15:53;12.03;;;3.50;;
9970;SDS011;5026;51.494;11.974;2023-03-13T01:18:20;13.37;;;4.30;;
9970;SDS011;5026;51.494;11.974;2023-03-13T01:20:47;11.27;;;3.80;;
9970;SDS011;5026;51.494;11.974;2023-03-13T01:23:15;16.83;;;4.57;;
9970;SDS011;5026;51.494;11.974;2023-03-13T01:25:42;17.90;;;4.33;;
9970;SDS011;5026;51.494;11.974;2023-03-13T01:28:09;15.50;;;3.70;;
9970;SDS011;5026;51.494;11.974;2023-03-13T01:30:36;14.23;;;3.53;;
9970;SDS011;5026;51.494;11.974;2023-03-13T01:33:03;14.07;;;4.17;;
9970;SDS011;5026;51.494;11.974;2023-03-13T01:35:30;15.27;;;3.67;;
9970;SDS011;5026;51.494;11.974;2023-03-13T01:37:57;15.50;;;3.30;;
9970;SDS011;5026;51.494;11.974;2023-03-13T01:40:25;17.73;;;3.83;;
9970;SDS011;5026;51.494;11.974;2023-03-13T01:42:53;12.20;;;3.73;;
9970;SDS011;5026;51.494;11.974;2023-03-13T01:48:23;7.73;;;3.03;;
9970;SDS011;5026;51.494;11.974;2023-03-13T01:50:57;13.97;;;3.70;;
9970;SDS011;5026;51.494;11.974;2023-03-13T01:53:26;16.33;;;3.50;;
9970;SDS011;5026;51.494;11.974;2023-03-13T01:55:57;11.43;;;3.50;;
9970;SDS011;5026;51.494;11.974;2023-03-13T01:58:26;13.67;;;3.67;;
9970;SDS011;5026;51.494;11.974;2023-03-13T02:00:55;15.47;;;3.77;;
9970;SDS011;5026;51.494;11.974;2023-03-13T02:03:23;12.97;;;3.77;;
9970;SDS011;5026;51.494;11.974;2023-03-13T02:05:52;15.70;;;3.73;;
9970;SDS011;5026;51.494;11.974;2023-03-13T02:08:22;8.63;;;3.43;;
9970;SDS011;5026;51.494;11.974;2023-03-13T02:10:56;18.90;;;4.63;;
9970;SDS011;5026;51.494;11.974;2023-03-13T02:13:29;11.37;;;3.20;;
9970;SDS011;5026;51.494;11.974;2023-03-13T02:15:56;17.63;;;3.83;;
9970;SDS011;5026;51.494;11.974;2023-03-13T02:18:23;10.27;;;3.00;;
9970;SDS011;5026;51.494;11.974;2023-03-13T02:20:50;10.13;;;3.47;;
9970;SDS011;5026;51.494;11.974;2023-03-13T02:23:26;18.37;;;3.43;;
9970;SDS011;5026;51.494;11.974;2023-03-13T02:25:59;12.80;;;3.60;;
9970;SDS011;5026;51.494;11.974;2023-03-13T02:28:26;20.17;;;4.00;;
9970;SDS011;5026;51.494;11.974;2023-03-13T02:30:57;16.47;;;3.50;;
9970;SDS011;5026;51.494;11.974;2023-03-13T02:33:25;14.97;;;3.30;;
9970;SDS011;5026;51.494;11.974;2023-03-13T02:35:54;15.80;;;3.43;;
9970;SDS011;5026;51.494;11.974;2023-03-13T02:38:22;18.03;;;3.47;;
9970;SDS011;5026;51.494;11.974;2023-03-13T02:40:51;15.27;;;3.83;;
9970;SDS011;5026;51.494;11.974;2023-03-13T02:43:22;12.83;;;3.33;;
9970;SDS011;5026;51.494;11.974;2023-03-13T02:46:05;18.67;;;3.50;;
9970;SDS011;5026;51.494;11.974;2023-03-13T02:48:36;12.57;;;3.17;;
9970;SDS011;5026;51.494;11.974;2023-03-13T02:51:04;6.80;;;2.67;;
9970;SDS011;5026;51.494;11.974;2023-03-13T02:53:36;10.40;;;3.10;;
9970;SDS011;5026;51.494;11.974;2023-03-13T02:56:03;16.07;;;3.33;;
9970;SDS011;5026;51.494;11.974;2023-03-13T02:58:39;13.60;;;3.27;;
9970;SDS011;5026;51.494;11.974;2023-03-13T03:01:07;11.10;;;2.80;;
9970;SDS011;5026;51.494;11.974;2023-03-13T03:03:34;12.77;;;3.20;;
9970;SDS011;5026;51.494;11.974;2023-03-13T03:06:02;15.30;;;3.37;;
9970;SDS011;5026;51.494;11.974;2023-03-13T03:08:30;10.37;;;2.70;;
9970;SDS011;5026;51.494;11.974;2023-03-13T03:10:58;12.33;;;3.33;;
9970;SDS011;5026;51.494;11.974;2023-03-13T03:13:24;11.10;;;2.90;;
9970;SDS011;5026;51.494;11.974;2023-03-13T03:15:53;17.23;;;3.27;;
9970;SDS011;5026;51.494;11.974;2023-03-13T03:18:20;11.77;;;3.47;;
9970;SDS011;5026;51.494;11.974;2023-03-13T03:20:47;15.27;;;3.77;;
9970;SDS011;5026;51.494;11.974;2023-03-13T03:23:14;14.70;;;3.30;;
9970;SDS011;5026;51.494;11.974;2023-03-13T03:25:41;14.50;;;3.50;;
9970;SDS011;5026;51.494;11.974;2023-03-13T03:28:07;11.73;;;3.00;;
9970;SDS011;5026;51.494;11.974;2023-03-13T03:30:34;15.17;;;4.13;;
9970;SDS011;5026;51.494;11.974;2023-03-13T03:33:03;14.37;;;3.37;;
9970;SDS011;5026;51.494;11.974;2023-03-13T03:35:30;18.30;;;3.73;;
9970;SDS011;5026;51.494;11.974;2023-03-13T03:37:58;11.03;;;3.10;;
9970;SDS011;5026;51.494;11.974;2023-03-13T03:40:25;16.97;;;3.60;;
9970;SDS011;5026;51.494;11.974;2023-03-13T03:42:52;9.47;;;3.10;;
9970;SDS011;5026;51.494;11.974;2023-03-13T03:45:19;15.27;;;3.70;;
9970;SDS011;5026;51.494;11.974;2023-03-13T03:47:46;13.97;;;3.33;;
9970;SDS011;5026;51.494;11.974;2023-03-13T03:50:14;9.00;;;2.70;;
9970;SDS011;5026;51.494;11.974;2023-03-13T03:52:41;13.80;;;3.23;;
9970;SDS011;5026;51.494;11.974;2023-03-13T03:55:08;11.20;;;2.80;;
9970;SDS011;5026;51.494;11.974;2023-03-13T03:57:35;14.60;;;3.33;;
9970;SDS011;5026;51.494;11.974;2023-03-13T04:00:03;11.83;;;3.37;;
9970;SDS011;5026;51.494;11.974;2023-03-13T04:02:31;9.03;;;2.87;;
9970;SDS011;5026;51.494;11.974;2023-03-13T04:04:58;13.37;;;3.23;;
9970;SDS011;5026;51.494;11.974;2023-03-13T04:07:27;12.87;;;3.43;;
9970;SDS011;5026;51.494;11.974;2023-03-13T04:09:54;13.33;;;3.20;;
9970;SDS011;5026;51.494;11.974;2023-03-13T04:12:21;13.67;;;2.97;;
9970;SDS011;5026;51.494;11.974;2023-03-13T04:14:48;14.50;;;3.40;;
9970;SDS011;5026;51.494;11.974;2023-03-13T04:17:15;13.53;;;3.47;;
9970;SDS011;5026;51.494;11.974;2023-03-13T04:19:42;17.37;;;3.67;;
9970;SDS011;5026;51.494;11.974;2023-03-13T04:22:09;14.90;;;3.53;;
9970;SDS011;5026;51.494;11.974;2023-03-13T04:24:37;10.77;;;3.00;;
9970;SDS011;5026;51.494;11.974;2023-03-13T04:27:04;9.10;;;3.60;;
9970;SDS011;5026;51.494;11.974;2023-03-13T04:29:31;10.43;;;3.00;;
9970;SDS011;5026;51.494;11.974;2023-03-13T04:31:59;11.80;;;3.17;;
9970;SDS011;5026;51.494;11.974;2023-03-13T04:34:26;13.40;;;3.13;;
9970;SDS011;5026;51.494;11.974;2023-03-13T04:36:52;10.20;;;2.90;;
9970;SDS011;5026;51.494;11.974;2023-03-13T04:39:19;10.57;;;3.20;;
9970;SDS011;5026;51.494;11.974;2023-03-13T04:41:50;13.20;;;3.30;;
9970;SDS011;5026;51.494;11.974;2023-03-13T04:44:18;17.67;;;3.30;;
9970;SDS011;5026;51.494;11.974;2023-03-13T04:46:45;12.60;;;2.83;;
9970;SDS011;5026;51.494;11.974;2023-03-13T04:49:12;13.37;;;3.17;;
9970;SDS011;5026;51.494;11.974;2023-03-13T04:51:39;16.33;;;3.23;;
9970;SDS011;5026;51.494;11.974;2023-03-13T04:54:07;18.77;;;3.67;;
9970;SDS011;5026;51.494;11.974;2023-03-13T04:56:34;11.90;;;3.43;;
9970;SDS011;5026;51.494;11.974;2023-03-13T04:59:02;14.83;;;3.40;;
9970;SDS011;5026;51.494;11.974;2023-03-13T05:01:29;12.10;;;3.47;;
9970;SDS011;5026;51.494;11.974;2023-03-13T05:03:56;10.50;;;2.77;;
9970;SDS011;5026;51.494;11.974;2023-03-13T05:06:23;15.10;;;3.10;;
9970;SDS011;5026;51.494;11.974;2023-03-13T05:08:50;16.30;;;3.57;;
9970;SDS011;5026;51.494;11.974;2023-03-13T05:11:17;10.67;;;3.60;;
9970;SDS011;5026;51.494;11.974;2023-03-13T05:13:44;8.77;;;3.03;;
9970;SDS011;5026;51.494;11.974;2023-03-13T05:16:12;12.80;;;3.00;;
9970;SDS011;5026;51.494;11.974;2023-03-13T05:18:40;14.70;;;3.57;;
9970;SDS011;5026;51.494;11.974;2023-03-13T05:21:06;12.40;;;3.30;;
9970;SDS011;5026;51.494;11.974;2023-03-13T05:23:34;14.57;;;3.67;;
9970;SDS011;5026;51.494;11.974;2023-03-13T05:26:00;14.70;;;3.77;;
9970;SDS011;5026;51.494;11.974;2023-03-13T05:28:27;12.40;;;3.60;;
9970;SDS011;5026;51.494;11.974;2023-03-13T05:30:54;12.53;;;3.50;;
9970;SDS011;5026;51.494;11.974;2023-03-13T05:33:23;12.30;;;3.43;;
9970;SDS011;5026;51.494;11.974;2023-03-13T05:35:49;12.97;;;3.10;;
9970;SDS011;5026;51.494;11.974;2023-03-13T05:38:16;11.13;;;3.90;;
9970;SDS011;5026;51.494;11.974;2023-03-13T05:40:43;11.50;;;3.47;;
9970;SDS011;5026;51.494;11.974;2023-03-13T05:43:10;9.50;;;2.87;;
9970;SDS011;5026;51.494;11.974;2023-03-13T05:45:37;10.47;;;3.27;;
9970;SDS011;5026;51.494;11.974;2023-03-13T05:48:04;16.23;;;3.73;;
9970;SDS011;5026;51.494;11.974;2023-03-13T05:50:33;11.10;;;3.23;;
9970;SDS011;5026;51.494;11.974;2023-03-13T05:53:00;17.07;;;4.10;;
9970;SDS011;5026;51.494;11.974;2023-03-13T05:55:27;13.03;;;4.07;;
9970;SDS011;5026;51.494;11.974;2023-03-13T05:57:54;18.17;;;4.20;;
9970;SDS011;5026;51.494;11.974;2023-03-13T06:00:21;13.80;;;4.00;;
9970;SDS011;5026;51.494;11.974;2023-03-13T06:02:48;9.83;;;4.00;;
9970;SDS011;5026;51.494;11.974;2023-03-13T06:05:15;11.90;;;4.63;;
9970;SDS011;5026;51.494;11.974;2023-03-13T06:07:43;14.63;;;3.30;;
9970;SDS011;5026;51.494;11.974;2023-03-13T06:10:10;10.03;;;3.70;;
9970;SDS011;5026;51.494;11.974;2023-03-13T06:12:37;16.77;;;3.73;;
9970;SDS011;5026;51.494;11.974;2023-03-13T06:15:05;12.80;;;2.90;;
9970;SDS011;5026;51.494;11.974;2023-03-13T06:17:33;10.37;;;3.80;;
9970;SDS011;5026;51.494;11.974;2023-03-13T06:20:00;8.67;;;3.00;;
9970;SDS011;5026;51.494;11.974;2023-03-13T06:22:29;13.43;;;3.37;;
9970;SDS011;5026;51.494;11.974;2023-03-13T06:24:57;17.93;;;3.87;;
9970;SDS011;5026;51.494;11.974;2023-03-13T06:27:24;9.80;;;3.53;;
9970;SDS011;5026;51.494;11.974;2023-03-13T06:29:51;15.37;;;3.50;;
9970;SDS011;5026;51.494;11.974;2023-03-13T06:32:18;15.00;;;3.30;;
9970;SDS011;5026;51.494;11.974;2023-03-13T06:34:45;12.80;;;3.20;;
9970;SDS011;5026;51.494;11.974;2023-03-13T06:37:12;11.80;;;3.03;;
9970;SDS011;5026;51.494;11.974;2023-03-13T06:39:39;9.87;;;3.03;;
9970;SDS011;5026;51.494;11.974;2023-03-13T06:42:07;11.83;;;3.00;;
9970;SDS011;5026;51.494;11.974;2023-03-13T06:44:34;10.40;;;3.53;;
9970;SDS011;5026;51.494;11.974;2023-03-13T06:47:01;15.93;;;3.40;;
9970;SDS011;5026;51.494;11.974;2023-03-13T06:49:28;9.43;;;3.60;;
9970;SDS011;5026;51.494;11.974;2023-03-13T06:51:56;14.67;;;4.20;;
9970;SDS011;5026;51.494;11.974;2023-03-13T06:54:23;11.07;;;3.43;;
9970;SDS011;5026;51.494;11.974;2023-03-13T06:56:51;15.80;;;3.67;;
9970;SDS011;5026;51.494;11.974;2023-03-13T06:59:20;16.50;;;3.07;;
9970;SDS011;5026;51.494;11.974;2023-03-13T07:01:47;15.20;;;2.90;;
9970;SDS011;5026;51.494;11.974;2023-03-13T07:04:14;8.10;;;3.50;;
9970;SDS011;5026;51.494;11.974;2023-03-13T07:06:41;15.43;;;3.30;;
9970;SDS011;5026;51.494;11.974;2023-03-13T07:09:08;10.30;;;2.63;;
9970;SDS011;5026;51.494;11.974;2023-03-13T07:11:35;9.90;;;2.60;;
9970;SDS011;5026;51.494;11.974;2023-03-13T07:14:02;7.50;;;3.00;;
9970;SDS011;5026;51.494;11.974;2023-03-13T07:16:30;9.23;;;2.50;;
9970;SDS011;5026;51.494;11.974;2023-03-13T07:18:57;13.47;;;3.03;;
9970;SDS011;5026;51.494;11.974;2023-03-13T07:21:24;9.80;;;2.93;;
9970;SDS011;5026;51.494;11.974;2023-03-13T07:23:51;7.50;;;2.23;;
9970;SDS011;5026;51.494;11.974;2023-03-13T07:26:18;12.33;;;3.00;;
9970;SDS011;5026;51.494;11.974;2023-03-13T07:28:45;4.57;;;2.03;;
9970;SDS011;5026;51.494;11.974;2023-03-13T07:31:12;8.73;;;2.80;;
9970;SDS011;5026;51.494;11.974;2023-03-13T07:33:42;4.93;;;2.23;;
9970;SDS011;5026;51.494;11.974;2023-03-13T07:36:10;8.10;;;2.37;;
9970;SDS011;5026;51.494;11.974;2023-03-13T07:38:37;2.93;;;1.60;;
9970;SDS011;5026;51.494;11.974;2023-03-13T07:41:04;5.03;;;1.40;;
9970;SDS011;5026;51.494;11.974;2023-03-13T07:43:31;1.73;;;1.17;;
9970;SDS011;5026;51.494;11.974;2023-03-13T07:45:59;3.43;;;1.87;;
9970;SDS011;5026;51.494;11.974;2023-03-13T07:48:27;4.17;;;1.97;;
9970;SDS011;5026;51.494;11.974;2023-03-13T07:50:56;3.77;;;1.30;;
9970;SDS011;5026;51.494;11.974;2023-03-13T07:53:24;4.30;;;1.47;;
9970;SDS011;5026;51.494;11.974;2023-03-13T07:55:55;4.17;;;1.40;;
9970;SDS011;5026;51.494;11.974;2023-03-13T07:58:23;5.33;;;1.30;;
9970;SDS011;5026;51.494;11.974;2023-03-13T08:00:51;2.97;;;1.03;;
9970;SDS011;5026;51.494;11.974;2023-03-13T08:03:19;3.67;;;1.43;;
9970;SDS011;5026;51.494;11.974;2023-03-13T08:05:46;2.20;;;1.13;;
9970;SDS011;5026;51.494;11.974;2023-03-13T08:08:14;2.07;;;1.10;;
9970;SDS011;5026;51.494;11.974;2023-03-13T08:10:41;4.40;;;1.20;;
9970;SDS011;5026;51.494;11.974;2023-03-13T08:13:09;0.90;;;0.90;;
9970;SDS011;5026;51.494;11.974;2023-03-13T08:15:36;4.20;;;0.90;;
9970;SDS011;5026;51.494;11.974;2023-03-13T08:18:03;2.37;;;1.37;;
9970;SDS011;5026;51.494;11.974;2023-03-13T08:20:30;6.27;;;1.13;;
9970;SDS011;5026;51.494;11.974;2023-03-13T08:22:56;2.37;;;1.30;;
9970;SDS011;5026;51.494;11.974;2023-03-13T08:25:25;2.60;;;1.20;;
9970;SDS011;5026;51.494;11.974;2023-03-13T08:27:52;1.23;;;1.00;;
9970;SDS011;5026;51.494;11.974;2023-03-13T08:30:20;4.20;;;1.20;;
9970;SDS011;5026;51.494;11.974;2023-03-13T08:32:46;2.80;;;1.27;;
9970;SDS011;5026;51.494;11.974;2023-03-13T08:35:13;1.43;;;0.90;;
9970;SDS011;5026;51.494;11.974;2023-03-13T08:37:40;3.30;;;1.17;;
9970;SDS011;5026;51.494;11.974;2023-03-13T08:40:08;1.47;;;0.80;;
9970;SDS011;5026;51.494;11.974;2023-03-13T08:42:38;4.13;;;1.10;;
9970;SDS011;5026;51.494;11.974;2023-03-13T08:45:05;3.87;;;1.23;;
9970;SDS011;5026;51.494;11.974;2023-03-13T08:47:33;0.97;;;0.97;;
9970;SDS011;5026;51.494;11.974;2023-03-13T08:50:00;4.63;;;1.30;;
9970;SDS011;5026;51.494;11.974;2023-03-13T08:52:27;2.50;;;1.10;;
9970;SDS011;5026;51.494;11.974;2023-03-13T08:54:54;1.93;;;0.63;;
9970;SDS011;5026;51.494;11.974;2023-03-13T08:57:21;2.20;;;0.80;;
9970;SDS011;5026;51.494;11.974;2023-03-13T08:59:50;3.13;;;1.07;;
9970;SDS011;5026;51.494;11.974;2023-03-13T09:02:17;1.87;;;1.10;;
9970;SDS011;5026;51.494;11.974;2023-03-13T09:04:45;2.20;;;0.80;;
9970;SDS011;5026;51.494;11.974;2023-03-13T09:07:13;1.90;;;0.82;;
9970;SDS011;5026;51.494;11.974;2023-03-13T09:09:41;2.20;;;0.90;;
9970;SDS011;5026;51.494;11.974;2023-03-13T09:12:08;1.90;;;0.70;;
9970;SDS011;5026;51.494;11.974;2023-03-13T09:14:35;2.03;;;0.77;;
9970;SDS011;5026;51.494;11.974;2023-03-13T09:17:04;1.83;;;0.95;;
9970;SDS011;5026;51.494;11.974;2023-03-13T09:19:31;1.33;;;0.70;;
9970;SDS011;5026;51.494;11.974;2023-03-13T09:21:58;1.17;;;0.93;;
9970;SDS011;5026;51.494;11.974;2023-03-13T09:24:26;1.90;;;0.80;;
9970;SDS011;5026;51.494;11.974;2023-03-13T09:26:53;2.25;;;1.17;;
9970;SDS011;5026;51.494;11.974;2023-03-13T09:29:19;1.67;;;1.00;;
9970;SDS011;5026;51.494;11.974;2023-03-13T09:31:46;1.37;;;0.80;;
9970;SDS011;5026;51.494;11.974;2023-03-13T09:34:15;1.67;;;0.90;;
9970;SDS011;5026;51.494;11.974;2023-03-13T09:36:41;1.15;;;0.98;;
9970;SDS011;5026;51.494;11.974;2023-03-13T09:39:08;1.52;;;1.00;;
9970;SDS011;5026;51.494;11.974;2023-03-13T09:41:37;0.82;;;0.80;;
9970;SDS011;5026;51.494;11.974;2023-03-13T09:44:09;1.60;;;1.27;;
9970;SDS011;5026;51.494;11.974;2023-03-13T09:46:40;2.40;;;1.15;;
9970;SDS011;5026;51.494;11.974;2023-03-13T09:49:17;1.42;;;1.25;;
9970;SDS011;5026;51.494;11.974;2023-03-13T09:51:57;3.47;;;1.00;;
9970;SDS011;5026;51.494;11.974;2023-03-13T09:54:32;1.23;;;0.80;;
9970;SDS011;5026;51.494;11.974;2023-03-13T09:57:04;0.70;;;0.70;;
9970;SDS011;5026;51.494;11.974;2023-03-13T09:59:41;0.73;;;0.73;;
9970;SDS011;5026;51.494;11.974;2023-03-13T10:02:15;2.08;;;0.85;;
9970;SDS011;5026;51.494;11.974;2023-03-13T10:04:50;1.48;;;0.90;;
9970;SDS011;5026;51.494;11.974;2023-03-13T10:07:22;1.52;;;1.10;;
9970;SDS011;5026;51.494;11.974;2023-03-13T10:09:49;1.08;;;0.85;;
9970;SDS011;5026;51.494;11.974;2023-03-13T10:12:18;1.65;;;1.00;;
9970;SDS011;5026;51.494;11.974;2023-03-13T10:14:49;1.00;;;0.88;;
9970;SDS011;5026;51.494;11.974;2023-03-13T10:17:37;2.45;;;1.38;;
9970;SDS011;5026;51.494;11.974;2023-03-13T10:20:12;1.02;;;0.93;;
9970;SDS011;5026;51.494;11.974;2023-03-13T10:22:43;10.43;;;1.25;;
9970;SDS011;5026;51.494;11.974;2023-03-13T10:25:17;1.42;;;0.93;;
9970;SDS011;5026;51.494;11.974;2023-03-13T10:27:52;0.45;;;0.45;;
9970;SDS011;5026;51.494;11.974;2023-03-13T10:30:21;2.35;;;0.80;;
9970;SDS011;5026;51.494;11.974;2023-03-13T10:32:50;1.42;;;1.27;;
9970;SDS011;5026;51.494;11.974;2023-03-13T10:35:22;2.63;;;0.90;;
9970;SDS011;5026;51.494;11.974;2023-03-13T10:37:50;1.38;;;0.90;;
9970;SDS011;5026;51.494;11.974;2023-03-13T10:40:27;4.20;;;1.02;;
9970;SDS011;5026;51.494;11.974;2023-03-13T10:42:58;1.08;;;0.98;;
9970;SDS011;5026;51.494;11.974;2023-03-13T10:45:30;1.20;;;0.70;;
9970;SDS011;5026;51.494;11.974;2023-03-13T10:47:59;1.83;;;1.02;;
9970;SDS011;5026;51.494;11.974;2023-03-13T10:50:33;1.90;;;0.70;;
9970;SDS011;5026;51.494;11.974;2023-03-13T10:53:07;0.73;;;0.70;;
9970;SDS011;5026;51.494;11.974;2023-03-13T10:55:48;1.30;;;0.90;;
9970;SDS011;5026;51.494;11.974;2023-03-13T10:58:17;2.40;;;0.68;;
9970;SDS011;5026;51.494;11.974;2023-03-13T11:00:48;0.80;;;0.80;;
9970;SDS011;5026;51.494;11.974;2023-03-13T11:03:15;0.90;;;0.77;;
9970;SDS011;5026;51.494;11.974;2023-03-13T11:05:53;2.35;;;0.90;;
9970;SDS011;5026;51.494;11.974;2023-03-13T11:08:22;1.27;;;1.00;;
9970;SDS011;5026;51.494;11.974;2023-03-13T11:10:54;1.42;;;0.90;;
9970;SDS011;5026;51.494;11.974;2023-03-13T11:13:26;1.45;;;1.00;;
9970;SDS011;5026;51.494;11.974;2023-03-13T11:15:56;1.48;;;0.80;;
9970;SDS011;5026;51.494;11.974;2023-03-13T11:18:29;0.75;;;0.75;;
9970;SDS011;5026;51.494;11.974;2023-03-13T11:21:03;1.58;;;1.10;;
9970;SDS011;5026;51.494;11.974;2023-03-13T11:23:32;1.05;;;1.00;;
9970;SDS011;5026;51.494;11.974;2023-03-13T11:26:06;1.25;;;1.02;;
9970;SDS011;5026;51.494;11.974;2023-03-13T11:28:43;2.15;;;1.00;;
9970;SDS011;5026;51.494;11.974;2023-03-13T11:31:18;2.17;;;1.20;;
9970;SDS011;5026;51.494;11.974;2023-03-13T11:33:50;2.15;;;1.10;;
9970;SDS011;5026;51.494;11.974;2023-03-13T11:36:27;1.80;;;1.00;;
9970;SDS011;5026;51.494;11.974;2023-03-13T11:39:01;1.20;;;1.10;;
9970;SDS011;5026;51.494;11.974;2023-03-13T11:41:44;1.13;;;1.02;;
9970;SDS011;5026;51.494;11.974;2023-03-13T11:44:27;2.85;;;1.20;;
9970;SDS011;5026;51.494;11.974;2023-03-13T11:46:59;3.33;;;1.40;;
9970;SDS011;5026;51.494;11.974;2023-03-13T11:49:38;1.20;;;1.10;;
9970;SDS011;5026;51.494;11.974;2023-03-13T11:52:20;0.90;;;0.90;;
9970;SDS011;5026;51.494;11.974;2023-03-13T11:54:58;1.27;;;1.05;;
9970;SDS011;5026;51.494;11.974;2023-03-13T11:57:39;1.67;;;1.27;;
9970;SDS011;5026;51.494;11.974;2023-03-13T12:00:15;1.15;;;1.05;;
9970;SDS011;5026;51.494;11.974;2023-03-13T12:02:49;1.85;;;1.15;;
9970;SDS011;5026;51.494;11.974;2023-03-13T12:05:21;3.58;;;1.30;;
9970;SDS011;5026;51.494;11.974;2023-03-13T12:07:52;1.50;;;1.15;;
9970;SDS011;5026;51.494;11.974;2023-03-13T12:10:28;3.22;;;1.45;;
9970;SDS011;5026;51.494;11.974;2023-03-13T12:13:00;3.00;;;0.90;;
9970;SDS011;5026;51.494;11.974;2023-03-13T12:15:31;0.80;;;0.80;;
9970;SDS011;5026;51.494;11.974;2023-03-13T12:18:04;1.38;;;1.00;;
9970;SDS011;5026;51.494;11.974;2023-03-13T12:20:39;1.67;;;1.15;;
9970;SDS011;5026;51.494;11.974;2023-03-13T12:23:17;1.73;;;1.38;;
9970;SDS011;5026;51.494;11.974;2023-03-13T12:25:47;1.73;;;1.13;;
9970;SDS011;5026;51.494;11.974;2023-03-13T12:30:49;3.78;;;1.40;;
9970;SDS011;5026;51.494;11.974;2023-03-13T12:45:53;3.42;;;1.50;;
9970;SDS011;5026;51.494;11.974;2023-03-13T12:48:42;1.98;;;1.38;;
9970;SDS011;5026;51.494;11.974;2023-03-13T12:54:10;2.05;;;1.00;;
9970;SDS011;5026;51.494;11.974;2023-03-13T13:25:29;3.70;;;1.63;;
9970;SDS011;5026;51.494;11.974;2023-03-13T13:28:21;2.03;;;1.13;;
9970;SDS011;5026;51.494;11.974;2023-03-13T13:30:52;2.13;;;1.13;;
9970;SDS011;5026;51.494;11.974;2023-03-13T13:33:36;2.63;;;1.77;;
9970;SDS011;5026;51.494;11.974;2023-03-13T13:39:31;3.40;;;1.73;;
9970;SDS011;5026;51.494;11.974;2023-03-13T13:45:19;3.78;;;1.70;;
9970;SDS011;5026;51.494;11.974;2023-03-13T13:53:59;4.95;;;1.55;;
9970;SDS011;5026;51.494;11.974;2023-03-13T13:56:31;3.42;;;1.60;;
9970;SDS011;5026;51.494;11.974;2023-03-13T14:02:14;1.50;;;1.27;;
9970;SDS011;5026;51.494;11.974;2023-03-13T14:04:45;2.97;;;1.30;;
9970;SDS011;5026;51.494;11.974;2023-03-13T14:07:16;2.10;;;1.60;;
9970;SDS011;5026;51.494;11.974;2023-03-13T14:09:47;3.40;;;1.20;;
9970;SDS011;5026;51.494;11.974;2023-03-13T14:12:27;4.75;;;2.38;;
9970;SDS011;5026;51.494;11.974;2023-03-13T14:17:49;3.38;;;1.85;;
9970;SDS011;5026;51.494;11.974;2023-03-13T14:23:00;4.10;;;2.00;;
9970;SDS011;5026;51.494;11.974;2023-03-13T14:25:39;4.07;;;2.03;;
9970;SDS011;5026;51.494;11.974;2023-03-13T14:28:14;4.15;;;1.63;;
9970;SDS011;5026;51.494;11.974;2023-03-13T14:30:48;5.13;;;1.95;;
9970;SDS011;5026;51.494;11.974;2023-03-13T14:33:17;3.72;;;1.60;;
9970;SDS011;5026;51.494;11.974;2023-03-13T14:35:44;3.28;;;1.40;;
9970;SDS011;5026;51.494;11.974;2023-03-13T14:38:16;3.92;;;1.48;;
9970;SDS011;5026;51.494;11.974;2023-03-13T14:40:44;2.70;;;1.77;;
9970;SDS011;5026;51.494;11.974;2023-03-13T14:43:19;3.00;;;1.70;;
9970;SDS011;5026;51.494;11.974;2023-03-13T14:45:58;5.43;;;1.65;;
9970;SDS011;5026;51.494;11.974;2023-03-13T14:48:26;3.20;;;1.33;;
9970;SDS011;5026;51.494;11.974;2023-03-13T14:50:59;2.95;;;1.58;;
9970;SDS011;5026;51.494;11.974;2023-03-13T14:53:27;3.65;;;1.85;;
9970;SDS011;5026;51.494;11.974;2023-03-13T14:56:11;2.25;;;1.50;;
9970;SDS011;5026;51.494;11.974;2023-03-13T14:58:39;1.50;;;1.38;;
9970;SDS011;5026;51.494;11.974;2023-03-13T15:01:22;3.42;;;1.25;;
9970;SDS011;5026;51.494;11.974;2023-03-13T15:03:51;2.97;;;1.60;;
9970;SDS011;5026;51.494;11.974;2023-03-13T15:06:18;7.45;;;2.08;;
9970;SDS011;5026;51.494;11.974;2023-03-13T15:08:46;3.20;;;1.63;;
9970;SDS011;5026;51.494;11.974;2023-03-13T15:11:19;1.85;;;1.45;;
9970;SDS011;5026;51.494;11.974;2023-03-13T15:13:51;3.13;;;1.67;;
9970;SDS011;5026;51.494;11.974;2023-03-13T15:16:19;1.60;;;1.50;;
9970;SDS011;5026;51.494;11.974;2023-03-13T15:18:49;2.33;;;1.92;;
9970;SDS011;5026;51.494;11.974;2023-03-13T15:21:21;2.40;;;1.75;;
9970;SDS011;5026;51.494;11.974;2023-03-13T15:23:51;4.85;;;1.70;;
9970;SDS011;5026;51.494;11.974;2023-03-13T15:26:20;3.63;;;1.95;;
9970;SDS011;5026;51.494;11.974;2023-03-13T15:28:48;6.03;;;1.60;;
9970;SDS011;5026;51.494;11.974;2023-03-13T15:31:15;4.38;;;1.60;;
9970;SDS011;5026;51.494;11.974;2023-03-13T15:33:46;2.05;;;1.77;;
9970;SDS011;5026;51.494;11.974;2023-03-13T15:36:16;4.03;;;1.80;;
9970;SDS011;5026;51.494;11.974;2023-03-13T15:38:43;4.32;;;1.80;;
9970;SDS011;5026;51.494;11.974;2023-03-13T15:41:10;3.58;;;1.48;;
9970;SDS011;5026;51.494;11.974;2023-03-13T15:43:37;4.40;;;1.88;;
9970;SDS011;5026;51.494;11.974;2023-03-13T15:46:05;4.68;;;1.75;;
9970;SDS011;5026;51.494;11.974;2023-03-13T15:48:36;2.00;;;1.48;;
9970;SDS011;5026;51.494;11.974;2023-03-13T15:51:05;3.22;;;1.55;;
9970;SDS011;5026;51.494;11.974;2023-03-13T15:53:35;2.30;;;1.40;;
9970;SDS011;5026;51.494;11.974;2023-03-13T15:56:04;1.48;;;1.38;;
9970;SDS011;5026;51.494;11.974;2023-03-13T15:58:38;1.92;;;1.60;;
9970;SDS011;5026;51.494;11.974;2023-03-13T16:01:06;2.35;;;1.33;;
9970;SDS011;5026;51.494;11.974;2023-03-13T16:03:34;4.43;;;1.60;;
9970;SDS011;5026;51.494;11.974;2023-03-13T16:06:11;3.22;;;1.35;;
9970;SDS011;5026;51.494;11.974;2023-03-13T16:08:40;5.05;;;2.50;;
9970;SDS011;5026;51.494;11.974;2023-03-13T16:11:08;3.63;;;2.65;;
9970;SDS011;5026;51.494;11.974;2023-03-13T16:13:38;2.88;;;2.03;;
9970;SDS011;5026;51.494;11.974;2023-03-13T16:16:10;2.28;;;1.40;;
9970;SDS011;5026;51.494;11.974;2023-03-13T16:18:43;3.10;;;1.85;;
9970;SDS011;5026;51.494;11.974;2023-03-13T16:21:11;3.70;;;2.20;;